Time;durP1;ratioP1;P1;durP2;ratioP2;P2;SDS_P1;SDS_P2;PMS_P1;PMS_P2;Temp;Humidity;BMP_temperature;BMP_pressure;BME280_temperature;BME280_humidity;BME280_pressure;Samples;Min_cycle;Max_cycle;Signal;HPM_P1;HPM_P2
2022/08/17 00:01:26;;;;;;;11.95;8.55;;;;;;;19.69;84.46;96519.22;4986130;28;20521;-63
2022/08/17 00:03:53;;;;;;;13.35;8.48;;;;;;;19.71;83.93;96513.97;4987089;28;20086;-60
2022/08/17 00:06:24;;;;;;;15.02;9.57;;;;;;;19.58;84.46;96511.84;4987259;28;20050;-63
2022/08/17 00:08:54;;;;;;;11.65;9.00;;;;;;;19.58;84.84;96548.38;4987049;28;20069;-58
2022/08/17 00:11:24;;;;;;;11.50;9.43;;;;;;;19.16;89.78;96509.34;4987511;28;20050;-58
2022/08/17 00:13:57;;;;;;;13.10;9.35;;;;;;;19.33;88.45;96514.53;4986558;28;20069;-58
2022/08/17 00:16:30;;;;;;;14.02;9.65;;;;;;;18.91;87.87;96417.34;4987238;28;20116;-57
2022/08/17 00:19:21;;;;;;;11.57;9.13;;;;;;;19.62;85.77;96513.81;4986712;28;20057;-64
2022/08/17 00:21:50;;;;;;;14.35;9.02;;;;;;;19.66;84.50;96511.69;4982480;28;20063;-58
2022/08/17 00:24:37;;;;;;;13.68;8.77;;;;;;;19.37;84.15;96466.69;4967650;28;20054;-64
2022/08/17 00:27:04;;;;;;;10.00;8.23;;;;;;;19.55;84.47;96509.94;4966247;28;20054;-64
2022/08/17 00:29:31;;;;;;;16.13;8.48;;;;;;;19.54;85.17;96508.38;4967843;28;20061;-63
2022/08/17 00:31:57;;;;;;;14.50;9.43;;;;;;;19.18;88.99;96521.72;4967611;28;20267;-57
2022/08/17 00:34:24;;;;;;;13.82;9.60;;;;;;;19.18;89.71;96516.09;4967347;28;20062;-58
2022/08/17 00:36:53;;;;;;;11.80;10.40;;;;;;;19.18;90.15;96516.09;4967149;28;20588;-64
2022/08/17 00:39:20;;;;;;;15.52;10.88;;;;;;;18.79;90.95;96456.53;4967246;28;20565;-64
2022/08/17 00:41:46;;;;;;;15.48;11.15;;;;;;;18.66;91.29;96481.69;4967188;28;20050;-60
2022/08/17 00:44:14;;;;;;;12.85;10.32;;;;;;;18.88;91.62;96481.97;4966916;28;20059;-57
2022/08/17 00:46:42;;;;;;;19.90;11.35;;;;;;;19.29;91.30;96499.81;4965628;28;20053;-64
2022/08/17 00:49:11;;;;;;;12.98;10.63;;;;;;;19.35;91.14;96500.84;4966883;28;20047;-58
2022/08/17 00:51:49;;;;;;;13.40;10.07;;;;;;;19.46;89.70;96503.38;4967114;28;20113;-63
2022/08/17 00:54:43;;;;;;;12.32;10.50;;;;;;;19.33;88.64;96494.88;4965540;28;20059;-64
2022/08/17 00:57:17;;;;;;;11.43;9.07;;;;;;;19.37;88.66;96495.59;4964333;28;20494;-64
2022/08/17 00:59:47;;;;;;;;;;;;;;;19.57;86.14;96500.28;4967239;28;20596;-59
2022/08/17 01:02:31;;;;;;;19.38;11.30;;;;;;;18.69;93.66;96491.25;4966931;28;19953;-58
2022/08/17 01:05:13;;;;;;;19.27;12.18;;;;;;;18.93;92.71;96487.88;4967206;28;20109;-57
2022/08/17 01:07:41;;;;;;;15.68;9.43;;;;;;;19.19;89.95;96498.03;4966772;28;20105;-58
2022/08/17 01:10:11;;;;;;;11.02;8.45;;;;;;;19.29;88.20;96501.81;4966658;28;20584;-57
2022/08/17 01:13:01;;;;;;;12.73;10.15;;;;;;;19.19;88.82;96492.41;4965490;28;20058;-58
2022/08/17 01:15:30;;;;;;;10.90;9.68;;;;;;;19.24;89.88;96517.16;4966822;28;20518;-63
2022/08/17 01:17:57;;;;;;;12.05;10.77;;;;;;;18.72;93.30;96513.63;4965516;28;20046;-58
2022/08/17 01:20:23;;;;;;;13.48;11.65;;;;;;;18.59;95.31;96517.56;4966826;28;20055;-63
2022/08/17 01:22:51;;;;;;;13.93;11.15;;;;;;;18.34;96.35;96520.88;4982723;28;20064;-57
2022/08/17 01:25:19;;;;;;;14.30;11.65;;;;;;;18.33;96.78;96524.91;4984649;28;20054;-61
2022/08/17 01:27:47;;;;;;;13.00;10.93;;;;;;;18.29;97.33;96524.16;4986074;28;20434;-63
2022/08/17 01:30:15;;;;;;;17.42;11.15;;;;;;;18.37;96.60;96520.00;4985774;28;20054;-62
2022/08/17 01:33:03;;;;;;;12.73;10.73;;;;;;;18.50;96.24;96512.53;4986050;28;20086;-63
2022/08/17 01:35:29;;;;;;;14.48;10.68;;;;;;;18.65;94.15;96513.78;4985582;28;20092;-63
2022/08/17 01:37:56;;;;;;;12.77;10.20;;;;;;;18.82;91.83;96501.38;4985244;28;20057;-60
2022/08/17 01:40:33;;;;;;;12.05;9.77;;;;;;;18.87;90.95;96492.44;4984012;28;20050;-57
2022/08/17 01:43:07;;;;;;;12.80;9.52;;;;;;;19.08;89.89;96503.13;4985974;28;20437;-59
2022/08/17 01:45:41;;;;;;;11.27;9.43;;;;;;;19.04;90.88;96508.03;4985875;28;20498;-63
2022/08/17 01:48:08;;;;;;;10.77;9.52;;;;;;;19.00;91.90;96512.16;4984427;28;20057;-58
2022/08/17 01:50:36;;;;;;;12.20;9.48;;;;;;;19.01;91.91;96492.06;4985473;28;20062;-63
2022/08/17 01:53:08;;;;;;;17.77;10.70;;;;;;;18.22;91.61;96367.34;4985335;28;20061;-58
2022/08/17 01:55:44;;;;;;;12.95;9.85;;;;;;;19.05;91.36;96554.53;4985606;28;20489;-57
2022/08/17 01:58:11;;;;;;;16.73;10.30;;;;;;;18.93;92.08;96490.66;4984420;28;20058;-57
2022/08/17 02:00:40;;;;;;;14.05;10.52;;;;;;;18.67;92.42;96454.44;4985685;28;20125;-63
2022/08/17 02:03:27;;;;;;;12.02;9.82;;;;;;;18.86;92.04;96496.44;4984467;28;20051;-63
2022/08/17 02:05:54;;;;;;;15.65;9.95;;;;;;;18.86;92.12;96482.41;4985236;28;20540;-57
2022/08/17 02:08:21;;;;;;;14.35;10.15;;;;;;;18.20;91.81;96397.81;4985283;28;20058;-63
2022/08/17 02:11:13;;;;;;;11.73;9.52;;;;;;;18.77;91.80;96487.84;4985446;28;20541;-63
2022/08/17 02:13:41;;;;;;;15.75;9.38;;;;;;;18.20;96.35;96487.53;4984751;28;20066;-57
2022/08/17 02:16:08;;;;;;;12.23;9.88;;;;;;;17.98;98.98;96494.81;4985296;28;20058;-57
2022/08/17 02:18:35;;;;;;;14.25;9.85;;;;;;;18.25;97.43;96489.81;4985261;28;20050;-62
2022/08/17 02:21:03;;;;;;;12.88;9.38;;;;;;;18.35;95.43;96494.41;4984956;28;20046;-57
2022/08/17 02:23:33;;;;;;;15.55;9.02;;;;;;;18.32;95.38;96495.25;4985241;28;20054;-58
2022/08/17 02:26:00;;;;;;;10.07;7.80;;;;;;;18.23;94.74;96475.44;4984952;28;20061;-61
2022/08/17 02:28:27;;;;;;;12.35;8.70;;;;;;;18.40;94.86;96491.09;4985462;28;20051;-63
2022/08/17 02:30:56;;;;;;;11.35;8.68;;;;;;;18.47;92.47;96499.38;4983907;28;20476;-63
2022/08/17 02:33:29;;;;;;;12.63;8.95;;;;;;;18.47;92.19;96498.56;4985200;28;20596;-63
2022/08/17 02:36:08;;;;;;;10.55;8.70;;;;;;;18.16;93.24;96441.16;4985345;28;20054;-57
2022/08/17 02:38:36;;;;;;;12.10;8.23;;;;;;;18.55;92.86;96489.56;4985250;28;20066;-62
2022/08/17 02:41:03;;;;;;;13.10;8.77;;;;;;;18.55;92.90;96489.56;4983571;28;20108;-58
2022/08/17 02:43:30;;;;;;;12.50;9.00;;;;;;;18.64;92.42;96488.97;4985139;28;20065;-63
2022/08/17 02:45:57;;;;;;;12.88;9.38;;;;;;;18.72;91.78;96479.94;4985499;28;20477;-63
2022/08/17 02:48:24;;;;;;;11.30;8.52;;;;;;;18.23;92.26;96427.78;4984875;28;20073;-63
2022/08/17 02:50:58;;;;;;;17.35;9.05;;;;;;;18.65;91.21;96484.94;4985191;28;20517;-63
2022/08/17 02:53:25;;;;;;;12.45;9.20;;;;;;;18.64;90.34;96495.38;4987526;28;20046;-64
2022/08/17 02:55:52;;;;;;;12.88;8.80;;;;;;;18.68;90.23;96490.47;4988776;28;20061;-58
2022/08/17 02:58:19;;;;;;;11.50;8.75;;;;;;;18.22;90.08;96422.59;4987322;28;20065;-57
2022/08/17 03:01:05;;;;;;;13.73;8.80;;;;;;;18.68;90.39;96490.47;4987177;28;20062;-57
2022/08/17 03:03:32;;;;;;;10.38;8.73;;;;;;;18.64;90.83;96483.34;4988224;28;20591;-57
2022/08/17 03:05:59;;;;;;;12.18;8.73;;;;;;;18.67;90.43;96483.28;4987234;28;20552;-64
2022/08/17 03:08:27;;;;;;;9.38;8.45;;;;;;;18.42;89.08;96438.19;4988287;28;20050;-57
2022/08/17 03:10:53;;;;;;;11.45;9.18;;;;;;;18.60;88.83;96483.44;4988678;28;20430;-64
2022/08/17 03:13:21;;;;;;;11.00;8.98;;;;;;;18.66;89.20;96495.72;4988144;28;20058;-59
2022/08/17 03:15:48;;;;;;;14.48;9.35;;;;;;;18.25;89.41;96456.19;4988735;28;20050;-64
2022/08/17 03:18:18;;;;;;;11.93;9.48;;;;;;;18.61;89.74;96509.47;4988203;28;20038;-57
2022/08/17 03:20:56;;;;;;;12.70;9.13;;;;;;;18.66;90.09;96501.34;4986802;28;20142;-59
2022/08/17 03:23:24;;;;;;;9.75;8.70;;;;;;;18.65;88.96;96502.53;4988427;28;20436;-58
2022/08/17 03:25:53;;;;;;;11.07;9.07;;;;;;;18.71;90.18;96505.63;4988454;28;20056;-64
2022/08/17 03:28:21;;;;;;;14.63;8.93;;;;;;;18.32;88.86;96433.56;4987704;28;20055;-58
2022/08/17 03:30:49;;;;;;;14.43;8.63;;;;;;;18.81;88.82;96505.38;4986140;28;20066;-64
2022/08/17 03:33:17;;;;;;;14.07;8.93;;;;;;;18.79;89.28;96510.66;4987483;28;20052;-56
2022/08/17 03:35:45;;;;;;;13.93;8.88;;;;;;;18.51;89.51;96472.03;4979269;28;20057;-64
2022/08/17 03:38:12;;;;;;;16.10;9.38;;;;;;;18.35;89.30;96449.56;5007498;28;20425;-57
2022/08/17 03:40:40;;;;;;;12.88;9.40;;;;;;;18.56;89.43;96488.34;5007354;28;20057;-58
2022/08/17 03:43:28;;;;;;;10.98;9.10;;;;;;;18.70;89.20;96502.03;5007431;28;20058;-64
2022/08/17 03:57:21;;;;;;;14.00;10.02;;;;;;;18.65;89.03;96529.84;5006611;28;20065;-58
2022/08/17 03:59:48;;;;;;;15.73;9.93;;;;;;;18.55;90.67;96530.84;5003313;28;20480;-57
2022/08/17 04:02:29;;;;;;;12.88;10.20;;;;;;;18.57;89.19;96543.25;5005583;28;20138;-64
2022/08/17 04:04:56;;;;;;;10.60;9.07;;;;;;;17.68;88.95;96388.56;5006501;28;20061;-57
2022/08/17 04:07:26;;;;;;;14.65;8.75;;;;;;;18.46;89.55;96499.81;5006701;28;20591;-62
2022/08/17 04:09:53;;;;;;;14.02;9.10;;;;;;;18.82;88.74;96540.66;5007037;28;20133;-57
2022/08/17 04:12:21;;;;;;;14.40;8.40;;;;;;;18.78;88.94;96545.53;5002855;28;20283;-58
2022/08/17 04:14:49;;;;;;;11.35;8.38;;;;;;;18.76;88.10;96525.53;5006875;28;20481;-57
2022/08/17 04:17:24;;;;;;;13.43;8.60;;;;;;;18.83;88.17;96542.22;5006610;28;20521;-63
2022/08/17 04:19:52;;;;;;;11.95;9.25;;;;;;;18.84;88.32;96534.59;5007140;28;20057;-58
2022/08/17 04:22:20;;;;;;;13.23;9.07;;;;;;;18.97;87.50;96541.09;5006904;28;20056;-62
2022/08/17 04:25:01;;;;;;;15.63;8.57;;;;;;;19.06;86.95;96542.06;5006481;28;20062;-58
2022/08/17 04:27:28;;;;;;;14.85;8.57;;;;;;;19.03;86.96;96528.91;5006269;28;20057;-58
2022/08/17 04:29:54;;;;;;;13.75;8.35;;;;;;;19.15;85.87;96530.22;5007002;28;20810;-62
2022/08/17 04:32:21;;;;;;;10.13;8.25;;;;;;;18.91;85.54;96483.91;5006412;28;20053;-62
2022/08/17 04:35:08;;;;;;;11.55;8.35;;;;;;;19.54;84.91;96552.53;5006461;28;20475;-63
2022/08/17 04:37:35;;;;;;;9.63;8.60;;;;;;;19.62;84.01;96542.69;5005792;28;20060;-60
2022/08/17 04:43:00;;;;;;;11.48;9.63;;;;;;;19.92;83.56;96544.28;5019605;28;20065;-63
2022/08/17 04:45:27;;;;;;;16.58;9.45;;;;;;;19.86;83.10;96523.56;5006270;28;20080;-63
2022/08/17 04:47:58;;;;;;;13.80;8.05;;;;;;;20.39;80.03;96551.03;5005857;28;20104;-57
2022/08/17 04:50:26;;;;;;;16.52;8.95;;;;;;;20.41;79.46;96552.13;5004791;28;20050;-59
2022/08/17 04:52:53;;;;;;;13.65;8.55;;;;;;;20.54;79.25;96554.97;5006129;28;20073;-63
2022/08/17 04:55:20;;;;;;;12.55;8.70;;;;;;;20.63;78.27;96549.47;4993615;28;20113;-62
2022/08/17 04:57:46;;;;;;;13.13;8.20;;;;;;;20.77;77.33;96554.69;4986631;28;20050;-57
2022/08/17 05:00:13;;;;;;;14.90;8.90;;;;;;;20.95;77.15;96554.91;4986502;28;20058;-63
2022/08/17 05:02:49;;;;;;;11.43;8.52;;;;;;;20.96;77.61;96550.88;4985161;28;20056;-58
2022/08/17 05:05:19;;;;;;;14.70;8.65;;;;;;;20.96;77.67;96550.88;4986649;28;20061;-57
2022/08/17 05:07:46;;;;;;;11.48;8.00;;;;;;;20.99;77.78;96545.13;4984400;28;20050;-58
2022/08/17 05:10:13;;;;;;;12.23;8.43;;;;;;;21.18;77.53;96540.53;4986373;28;20039;-61
2022/08/17 05:12:39;;;;;;;9.27;8.38;;;;;;;21.34;77.50;96548.06;4985955;28;20729;-57
2022/08/17 05:15:10;;;;;;;9.57;7.82;;;;;;;21.55;76.60;96545.31;4985490;28;20065;-58
2022/08/17 05:17:37;;;;;;;8.60;7.35;;;;;;;21.70;76.55;96549.25;4986065;28;20062;-63
2022/08/17 05:20:04;;;;;;;9.60;8.43;;;;;;;21.78;74.71;96528.00;4985326;28;20051;-62
2022/08/17 05:22:31;;;;;;;15.02;8.07;;;;;;;22.06;74.25;96543.94;5006700;28;20049;-58
2022/08/17 05:24:57;;;;;;;10.35;7.35;;;;;;;22.17;73.73;96527.41;5004274;28;20057;-57
2022/08/17 05:27:27;;;;;;;13.45;7.63;;;;;;;22.32;73.07;96514.34;5004992;28;20057;-60
2022/08/17 05:30:00;;;;;;;13.13;7.35;;;;;;;22.45;71.40;96497.34;5005197;28;20050;-62
2022/08/17 05:32:27;;;;;;;12.02;7.68;;;;;;;23.03;70.25;96548.38;5004890;28;20058;-58
2022/08/17 05:35:06;;;;;;;11.23;7.38;;;;;;;22.99;69.05;96508.16;5005270;28;20160;-56
2022/08/17 05:37:32;;;;;;;11.30;9.18;;;;;;;23.51;68.71;96534.25;5004814;28;20483;-57
2022/08/17 05:39:59;;;;;;;11.80;9.18;;;;;;;23.75;66.83;96543.75;5005123;28;20054;-62
2022/08/17 05:42:26;;;;;;;8.30;7.32;;;;;;;23.75;65.89;96542.94;5004786;28;20049;-57
2022/08/17 05:44:56;;;;;;;11.30;7.45;;;;;;;24.08;65.53;96543.94;5005461;28;20509;-56
2022/08/17 05:47:25;;;;;;;11.27;7.07;;;;;;;24.26;65.85;96538.31;5004787;28;20452;-62
2022/08/17 05:49:52;;;;;;;8.18;7.38;;;;;;;24.33;66.21;96525.88;5004641;28;20054;-62
2022/08/17 05:52:19;;;;;;;8.70;6.68;;;;;;;24.60;66.02;96535.09;5004620;28;20192;-62
2022/08/17 05:55:07;;;;;;;13.15;7.32;;;;;;;24.79;66.57;96542.34;4998849;28;20076;-62
2022/08/17 05:57:42;;;;;;;12.00;7.50;;;;;;;24.99;66.13;96538.97;4983780;28;20057;-62
2022/08/17 06:00:25;;;;;;;11.38;7.75;;;;;;;25.13;66.52;96539.06;4985599;28;20484;-58
2022/08/17 06:03:24;;;;;;;9.60;7.35;;;;;;;25.42;65.23;96543.41;4985123;28;20096;-62
2022/08/17 06:06:00;;;;;;;8.80;7.28;;;;;;;25.60;64.55;96534.78;4984524;28;20042;-63
2022/08/17 06:08:42;;;;;;;11.65;7.28;;;;;;;25.89;63.86;96537.75;4985119;28;20046;-57
2022/08/17 06:11:26;;;;;;;8.43;7.53;;;;;;;26.09;62.62;96540.78;4983658;28;20054;-62
2022/08/17 06:14:02;;;;;;;8.48;7.28;;;;;;;26.12;60.19;96545.47;4984392;28;20054;-63
2022/08/17 06:16:37;;;;;;;8.63;7.10;;;;;;;26.23;58.58;96542.88;4984566;28;20552;-57
2022/08/17 06:19:16;;;;;;;9.07;7.80;;;;;;;26.49;57.33;96535.41;4985107;28;20061;-63
2022/08/17 06:21:47;;;;;;;11.55;8.18;;;;;;;26.68;57.20;96548.19;4983582;28;20564;-62
2022/08/17 06:24:27;;;;;;;8.80;7.90;;;;;;;26.85;56.15;96523.69;4984770;28;20397;-58
2022/08/17 06:26:58;;;;;;;9.65;7.70;;;;;;;27.05;59.31;96537.97;4987113;28;20054;-63
2022/08/17 06:29:45;;;;;;;13.15;8.07;;;;;;;27.13;59.16;96538.34;4989096;28;20101;-63
2022/08/17 06:32:12;;;;;;;9.57;7.82;;;;;;;26.90;58.71;96486.03;4988297;28;20058;-57
2022/08/17 06:34:42;;;;;;;8.63;7.82;;;;;;;27.42;59.09;96535.50;4987309;28;20113;-63
2022/08/17 06:37:29;;;;;;;13.48;6.97;;;;;;;27.67;56.47;96538.47;4989094;28;20125;-56
2022/08/17 06:40:44;;;;;;;9.45;7.72;;;;;;;27.86;53.13;96534.09;4988655;28;20051;-57
2022/08/17 06:43:19;;;;;;;9.00;7.00;;;;;;;28.11;50.66;96539.13;4988160;28;20121;-63
2022/08/17 06:46:01;;;;;;;8.50;6.43;;;;;;;28.34;48.72;96522.28;4988349;28;20058;-58
2022/08/17 06:49:06;;;;;;;9.73;6.97;;;;;;;28.47;49.67;96532.03;4992276;28;20057;-54
2022/08/17 06:51:47;;;;;;;7.77;6.90;;;;;;;28.62;49.25;96532.75;4994141;28;20050;-56
2022/08/17 06:54:22;;;;;;;8.07;7.38;;;;;;;28.52;47.06;96531.34;5001077;28;20057;-58
2022/08/17 06:57:05;;;;;;;8.88;6.93;;;;;;;28.52;46.70;96528.50;4999912;28;20076;-67
2022/08/17 06:59:46;;;;;;;8.43;7.28;;;;;;;28.73;46.33;96514.97;5007694;28;20064;-67
2022/08/17 07:03:11;;;;;;;10.70;7.10;;;;;;;29.09;46.39;96525.69;4994469;28;20062;-57
2022/08/17 07:05:42;;;;;;;8.88;7.10;;;;;;;29.19;45.92;96529.94;5017313;28;20064;-61
2022/08/17 07:08:12;;;;;;;9.65;6.55;;;;;;;29.32;46.32;96527.47;5006925;28;20088;-62
2022/08/17 07:10:46;;;;;;;7.75;6.53;;;;;;;29.44;45.83;96517.69;5007816;28;20436;-57
2022/08/17 07:13:28;;;;;;;7.28;6.53;;;;;;;29.62;44.70;96523.00;5007551;28;20050;-55
2022/08/17 07:16:05;;;;;;;9.02;6.68;;;;;;;29.72;43.91;96515.81;5005191;28;20049;-67
2022/08/17 07:18:33;;;;;;;11.40;6.65;;;;;;;29.67;43.87;96519.41;5002596;28;20046;-64
2022/08/17 07:21:25;;;;;;;7.53;6.82;;;;;;;29.80;41.54;96505.47;4987753;28;20097;-60
2022/08/17 07:24:19;;;;;;;9.20;7.03;;;;;;;29.91;42.38;96522.69;4993542;28;20064;-56
2022/08/17 07:27:10;;;;;;;9.40;6.50;;;;;;;30.04;42.60;96525.88;4995291;28;20421;-72
2022/08/17 07:29:39;;;;;;;6.78;6.05;;;;;;;30.23;41.33;96509.88;4990034;28;20051;-55
2022/08/17 07:32:08;;;;;;;8.43;6.63;;;;;;;30.07;40.44;96467.69;5001865;28;20054;-56
2022/08/17 07:35:09;;;;;;;10.10;7.57;;;;;;;30.34;40.56;96509.91;5006709;28;20049;-63
2022/08/17 07:37:39;;;;;;;7.35;6.70;;;;;;;30.37;40.62;96514.59;4999682;28;20064;-64
2022/08/17 07:40:32;;;;;;;9.00;6.55;;;;;;;30.12;40.14;96504.09;4998270;28;20050;-56
2022/08/17 07:43:38;;;;;;;10.55;6.97;;;;;;;30.35;40.17;96507.84;4993646;28;20548;-61
2022/08/17 07:49:08;;;;;;;8.38;7.63;;;;;;;30.24;39.61;96500.00;4992029;28;20098;-57
2022/08/17 07:51:56;;;;;;;13.23;8.35;;;;;;;30.13;40.29;96487.75;5000666;28;20050;-70
2022/08/17 07:54:34;;;;;;;12.45;7.97;;;;;;;30.27;39.83;96512.50;4997992;28;20555;-63
2022/08/17 07:57:02;;;;;;;9.88;6.90;;;;;;;30.45;39.22;96501.38;5004551;28;20073;-55
2022/08/17 07:59:33;;;;;;;13.18;6.97;;;;;;;30.58;39.36;96495.97;5004277;28;20050;-65
2022/08/17 08:02:27;;;;;;;10.38;8.10;;;;;;;30.45;38.17;96489.16;5001868;28;20072;-57
2022/08/17 08:05:11;;;;;;;8.43;6.97;;;;;;;30.68;37.82;96502.97;5004949;28;20052;-56
2022/08/17 08:07:41;;;;;;;7.70;6.35;;;;;;;30.74;38.01;96500.94;5006272;28;20045;-67
2022/08/17 08:10:11;;;;;;;9.07;7.40;;;;;;;30.36;37.63;96415.88;5006047;28;20261;-57
2022/08/17 08:12:41;;;;;;;8.32;6.30;;;;;;;30.82;36.49;96464.84;4998468;28;20054;-67
2022/08/17 08:15:16;;;;;;;7.85;7.15;;;;;;;31.06;36.60;96495.81;4999453;28;20100;-57
2022/08/17 08:18:01;;;;;;;8.93;6.60;;;;;;;31.18;36.19;96497.34;5005197;28;20077;-67
2022/08/17 08:20:34;;;;;;;7.70;7.00;;;;;;;31.30;36.47;96492.41;5001998;28;20053;-55
2022/08/17 08:23:38;;;;;;;10.18;8.93;;;;;;;31.29;36.94;96479.38;5005698;28;20054;-57
2022/08/17 08:26:26;;;;;;;13.52;7.28;;;;;;;31.57;36.46;96488.78;5006067;28;20497;-60
2022/08/17 08:29:29;;;;;;;9.60;7.18;;;;;;;31.65;37.14;96489.75;4997928;28;20528;-57
2022/08/17 08:32:33;;;;;;;9.40;6.88;;;;;;;31.73;35.33;96490.78;5000772;28;20065;-60
2022/08/17 08:35:12;;;;;;;8.27;7.25;;;;;;;31.82;35.05;96461.88;5001298;28;20058;-56
2022/08/17 08:37:51;;;;;;;7.88;6.97;;;;;;;32.02;33.08;96473.03;5001300;28;20054;-65
2022/08/17 08:40:28;;;;;;;7.70;6.43;;;;;;;32.22;33.77;96481.28;4997682;28;20054;-57
2022/08/17 08:43:26;;;;;;;9.05;7.32;;;;;;;32.18;34.51;96487.28;4996630;28;20068;-59
2022/08/17 08:46:08;;;;;;;11.18;6.65;;;;;;;32.29;34.89;96483.59;5003035;28;20519;-56
2022/08/17 08:48:58;;;;;;;7.05;6.35;;;;;;;31.71;35.26;96476.25;5000754;28;20054;-62
2022/08/17 08:51:41;;;;;;;6.65;5.97;;;;;;;30.92;35.37;96479.63;5001048;28;20052;-64
2022/08/17 08:54:08;;;;;;;6.93;5.60;;;;;;;31.24;34.89;96472.38;4992812;28;20038;-71
2022/08/17 08:56:47;;;;;;;6.82;6.22;;;;;;;31.63;35.18;96475.97;4992678;28;20514;-66
2022/08/17 08:59:39;;;;;;;7.28;6.57;;;;;;;32.09;36.28;96469.63;4998336;28;20054;-53
2022/08/17 09:02:32;;;;;;;8.27;6.32;;;;;;;31.87;35.72;96484.00;5003762;28;20089;-54
2022/08/17 09:05:01;;;;;;;7.28;6.68;;;;;;;32.13;35.33;96481.59;4999977;28;20050;-68
2022/08/17 09:08:06;;;;;;;7.63;6.75;;;;;;;32.37;35.41;96478.91;4999077;28;20046;-66
2022/08/17 09:10:44;;;;;;;7.85;7.13;;;;;;;32.03;35.15;96481.09;5004424;28;20058;-68
2022/08/17 09:13:14;;;;;;;9.65;6.32;;;;;;;31.70;34.66;96477.53;4997041;28;20050;-55
2022/08/17 09:15:46;;;;;;;8.25;6.10;;;;;;;31.65;33.82;96466.84;4998959;28;20062;-66
2022/08/17 09:18:27;;;;;;;8.38;7.43;;;;;;;31.74;34.46;96498.09;5003163;28;20045;-55
2022/08/17 09:21:14;;;;;;;6.65;6.05;;;;;;;31.50;34.18;96481.50;4998185;28;20543;-58
2022/08/17 09:24:11;;;;;;;7.13;6.45;;;;;;;31.60;34.13;96482.00;5003794;28;20524;-65
2022/08/17 09:27:01;;;;;;;6.80;6.20;;;;;;;31.51;33.87;96473.66;4994085;28;20537;-59
2022/08/17 09:29:33;;;;;;;8.15;6.35;;;;;;;32.14;34.40;96483.13;4992856;28;20049;-61
2022/08/17 09:32:16;;;;;;;6.93;6.22;;;;;;;31.88;32.99;96456.94;5002979;28;20129;-63
2022/08/17 09:34:51;;;;;;;8.48;6.80;;;;;;;32.12;32.96;96451.38;4998290;28;20045;-66
2022/08/17 09:37:21;;;;;;;6.53;5.93;;;;;;;32.54;32.20;96481.66;5004337;28;20050;-57
2022/08/17 09:40:08;;;;;;;7.45;6.60;;;;;;;32.61;33.06;96472.50;5003289;28;20057;-60
2022/08/17 09:42:49;;;;;;;7.50;6.20;;;;;;;32.80;33.20;96474.19;4996198;28;20057;-70
2022/08/17 09:45:23;;;;;;;10.13;7.80;;;;;;;32.33;33.42;96438.22;5002456;28;20497;-56
2022/08/17 09:48:17;;;;;;;8.40;6.90;;;;;;;32.10;34.04;96405.25;5002351;28;20061;-65
2022/08/17 09:50:54;;;;;;;7.50;6.85;;;;;;;32.98;33.12;96444.88;4997663;28;20049;-56
2022/08/17 09:53:34;;;;;;;6.63;5.75;;;;;;;32.72;32.96;96409.31;4997305;28;20061;-57
2022/08/17 09:56:04;;;;;;;8.02;7.25;;;;;;;32.52;33.77;96476.47;4988905;28;20058;-64
2022/08/17 09:58:49;;;;;;;6.93;6.22;;;;;;;32.80;33.13;96468.44;5002518;28;20449;-65
2022/08/17 10:01:36;;;;;;;8.48;6.32;;;;;;;32.77;32.60;96397.78;5002622;28;20080;-57
2022/08/17 10:04:23;;;;;;;6.05;5.55;;;;;;;33.83;32.20;96466.56;4994173;28;20470;-56
2022/08/17 10:07:16;;;;;;;6.93;6.22;;;;;;;32.20;31.16;96191.50;4997399;28;20062;-58
2022/08/17 10:10:11;;;;;;;8.82;6.75;;;;;;;34.90;30.59;96454.72;5001910;28;20046;-66
2022/08/17 10:13:18;;;;;;;6.28;5.63;;;;;;;35.69;30.47;96450.78;4995704;28;20042;-55
2022/08/17 10:15:55;;;;;;;8.93;5.80;;;;;;;34.69;31.18;96456.59;4997204;28;20084;-59
2022/08/17 10:18:39;;;;;;;8.95;5.75;;;;;;;35.00;30.43;96458.75;4998767;28;20141;-60
2022/08/17 10:26:50;;;;;;;9.55;6.43;;;;;;;34.70;31.34;96427.25;5001747;28;20050;-58
2022/08/17 10:29:35;;;;;;;6.47;5.88;;;;;;;33.36;32.12;96458.13;4993755;28;20973;-60
2022/08/17 10:32:39;;;;;;;7.00;5.75;;;;;;;32.82;33.12;96450.69;4995057;28;20047;-57
2022/08/17 10:35:29;;;;;;;7.68;6.80;;;;;;;33.29;33.06;96447.19;4986562;28;20050;-57
2022/08/17 10:38:30;;;;;;;6.53;5.93;;;;;;;33.33;33.37;96441.97;4994914;28;20050;-66
2022/08/17 10:41:25;;;;;;;8.20;6.10;;;;;;;33.20;33.38;96447.56;4999561;28;20057;-57
2022/08/17 10:44:37;;;;;;;8.32;5.70;;;;;;;33.35;33.06;96445.09;4994398;28;20057;-60
2022/08/17 10:47:10;;;;;;;6.47;5.88;;;;;;;33.54;32.29;96440.19;4963766;28;20082;-58
2022/08/17 10:50:03;;;;;;;6.75;5.40;;;;;;;33.70;31.82;96436.34;4993585;28;20119;-63
2022/08/17 10:52:29;;;;;;;6.55;5.95;;;;;;;33.70;31.93;96436.34;4995393;28;20528;-64
2022/08/17 10:55:04;;;;;;;5.90;5.50;;;;;;;34.06;31.49;96427.63;5003240;28;20050;-60
2022/08/17 10:57:36;;;;;;;8.85;6.38;;;;;;;34.32;31.42;96422.06;5001481;28;20054;-61
2022/08/17 11:00:17;;;;;;;6.03;5.63;;;;;;;33.78;31.05;96425.06;4994744;28;20709;-59
2022/08/17 11:02:53;;;;;;;12.20;5.72;;;;;;;33.25;32.36;96435.25;5002072;28;20524;-59
2022/08/17 11:05:39;;;;;;;8.60;6.28;;;;;;;33.80;31.61;96404.41;5003146;28;20077;-65
2022/08/17 11:08:56;;;;;;;7.30;6.20;;;;;;;33.65;31.74;96371.09;5003021;28;20057;-62
2022/08/17 11:11:48;;;;;;;9.83;5.60;;;;;;;34.29;30.50;96406.66;4999664;28;20141;-56
2022/08/17 11:14:16;;;;;;;6.53;5.93;;;;;;;34.89;30.22;96430.91;5005084;28;20045;-67
2022/08/17 11:17:03;;;;;;;7.13;6.35;;;;;;;34.81;30.16;96418.44;4999972;28;20600;-60
2022/08/17 11:19:39;;;;;;;8.35;7.53;;;;;;;34.95;30.33;96416.44;5003664;28;20488;-62
2022/08/17 11:22:42;;;;;;;12.65;6.53;;;;;;;34.80;30.08;96421.88;5001051;28;20436;-57
2022/08/17 11:25:16;;;;;;;7.20;6.68;;;;;;;34.67;29.97;96413.19;4998657;28;20054;-58
2022/08/17 11:27:52;;;;;;;6.43;5.80;;;;;;;33.28;31.32;96336.53;5005592;28;20115;-59
2022/08/17 11:30:45;;;;;;;7.88;6.72;;;;;;;34.20;30.62;96404.16;5001913;28;20137;-64
2022/08/17 11:33:29;;;;;;;7.07;6.38;;;;;;;33.98;30.74;96409.41;5003563;28;20057;-64
2022/08/17 11:36:32;;;;;;;9.75;6.88;;;;;;;33.82;31.09;96419.00;5001307;28;20046;-58
2022/08/17 11:39:17;;;;;;;8.90;6.32;;;;;;;33.89;31.10;96409.78;5002834;28;20064;-68
2022/08/17 11:41:56;;;;;;;8.13;7.32;;;;;;;33.85;30.90;96406.41;5006119;28;20068;-61
2022/08/17 11:44:42;;;;;;;7.30;6.68;;;;;;;33.85;30.53;96410.06;5001081;28;20057;-60
2022/08/17 11:53:02;;;;;;;9.00;6.35;;;;;;;33.85;31.19;96406.41;5000300;28;20061;-62
2022/08/17 11:55:33;;;;;;;6.47;5.50;;;;;;;33.95;30.71;96407.63;5002933;28;20112;-55
2022/08/17 11:58:36;;;;;;;6.20;5.70;;;;;;;33.86;30.95;96407.97;4994478;28;20050;-67
2022/08/17 12:01:28;;;;;;;6.88;6.28;;;;;;;33.71;32.21;96408.41;4999410;28;20406;-57
2022/08/17 12:04:24;;;;;;;10.27;6.13;;;;;;;33.90;31.90;96411.34;4997838;28;20063;-63
2022/08/17 12:06:58;;;;;;;7.30;6.50;;;;;;;33.74;31.92;96436.84;4999129;28;20591;-71
2022/08/17 12:09:30;;;;;;;6.78;6.13;;;;;;;33.33;32.53;96418.97;4999038;28;20053;-59
2022/08/17 12:12:08;;;;;;;7.40;6.03;;;;;;;33.19;33.18;96413.63;5002228;28;20432;-61
2022/08/17 12:14:46;;;;;;;7.03;6.10;;;;;;;31.50;33.04;96152.16;5001411;28;20404;-64
2022/08/17 12:17:34;;;;;;;9.65;5.78;;;;;;;32.98;33.68;96403.91;5003275;28;20076;-64
2022/08/17 12:20:18;;;;;;;10.75;6.47;;;;;;;32.85;34.21;96423.84;5000331;28;20058;-63
2022/08/17 12:22:59;;;;;;;6.75;6.03;;;;;;;32.41;34.62;96438.47;5002572;28;20061;-64
2022/08/17 12:25:37;;;;;;;6.95;6.35;;;;;;;32.56;35.03;96425.34;5018800;28;20460;-63
2022/08/17 12:28:36;;;;;;;8.13;6.55;;;;;;;32.54;34.97;96432.91;5000577;28;20054;-59
2022/08/17 12:31:14;;;;;;;8.07;6.30;;;;;;;32.13;35.59;96375.53;4999305;28;20054;-64
2022/08/17 12:33:46;;;;;;;7.80;6.25;;;;;;;32.59;35.06;96430.00;5004270;28;20557;-65
2022/08/17 12:36:15;;;;;;;8.23;7.43;;;;;;;32.65;34.79;96410.66;5004511;28;20068;-64
2022/08/17 12:39:01;;;;;;;7.80;7.10;;;;;;;32.99;34.31;96423.47;5003537;28;20050;-59
2022/08/17 12:41:49;;;;;;;7.72;7.03;;;;;;;33.46;34.26;96427.75;5000711;28;20050;-58
2022/08/17 12:44:18;;;;;;;7.10;6.40;;;;;;;33.59;33.99;96419.25;4999457;28;20077;-63